THY2123 LTBS-UUEE
Flight info
| Callsign | THY2123 |
|---|---|
| Flight time | N/A |
| Altitude | 34000 |
| Route | KEKIK DCT YOYYO UG80 IMR UN127 LMO DCT ATFIR N133 LOMOS DCT NARKA DCT KEKED DCT PODAN DCT VABER DCT LAUGA DCT IGORO/K0874F340 M864 DIPOP DIPOP3F |
| Aircraft | B738/M-SDE2E3FGHIRWXY/LB1 |
Departure
| Time | 2026-04-27 06:06 |
|---|---|
| Airport | Dalaman International Airport (LTBS) |
Arrival
| Time | N/A |
|---|---|
| Airport | Sheremetyevo International Airport (UUEE) |
| Time | Latitude | Longitude | Altitude | Speed | Heading |
|---|---|---|---|---|---|
| 2026-04-27 04:47 | 36.71613 | 28.78823 | 24 ft | 0 kts | 285° |
| 2026-04-27 05:46 | 36.71608 | 28.78847 | 29 ft | 4 kts | 282° |
| 2026-04-27 05:47 | 36.71600 | 28.78879 | 28 ft | 4 kts | 292° |
| 2026-04-27 05:47 | 36.71589 | 28.78909 | 28 ft | 4 kts | 302° |
| 2026-04-27 05:47 | 36.71578 | 28.78929 | 27 ft | 1 kts | 304° |
| 2026-04-27 05:47 | 36.71577 | 28.78932 | 27 ft | 2 kts | 304° |
| 2026-04-27 05:53 | 36.71580 | 28.78917 | 27 ft | 4 kts | 269° |
| 2026-04-27 05:53 | 36.71551 | 28.78902 | 26 ft | 6 kts | 193° |
| 2026-04-27 05:53 | 36.71512 | 28.78891 | 23 ft | 6 kts | 192° |
| 2026-04-27 05:54 | 36.71473 | 28.78881 | 26 ft | 6 kts | 195° |
| 2026-04-27 05:54 | 36.71436 | 28.78866 | 23 ft | 6 kts | 198° |
| 2026-04-27 05:54 | 36.71398 | 28.78852 | 23 ft | 6 kts | 194° |
| 2026-04-27 05:54 | 36.71363 | 28.78862 | 25 ft | 6 kts | 132° |
| 2026-04-27 05:55 | 36.71349 | 28.78907 | 27 ft | 6 kts | 109° |
| 2026-04-27 05:55 | 36.71338 | 28.78953 | 23 ft | 5 kts | 105° |
| 2026-04-27 05:55 | 36.71328 | 28.78997 | 23 ft | 5 kts | 108° |
| 2026-04-27 05:55 | 36.71302 | 28.79029 | 25 ft | 5 kts | 163° |
| 2026-04-27 05:56 | 36.71266 | 28.79020 | 23 ft | 5 kts | 194° |
| 2026-04-27 05:56 | 36.71230 | 28.79009 | 22 ft | 5 kts | 193° |
| 2026-04-27 05:56 | 36.71195 | 28.78999 | 22 ft | 5 kts | 192° |
| 2026-04-27 05:56 | 36.71160 | 28.78988 | 22 ft | 5 kts | 197° |
| 2026-04-27 05:57 | 36.71122 | 28.78974 | 22 ft | 6 kts | 195° |
| 2026-04-27 05:57 | 36.71073 | 28.78957 | 22 ft | 8 kts | 194° |
| 2026-04-27 05:57 | 36.71014 | 28.78938 | 22 ft | 10 kts | 195° |
| 2026-04-27 05:57 | 36.70943 | 28.78914 | 24 ft | 11 kts | 195° |
| 2026-04-27 05:58 | 36.70870 | 28.78890 | 22 ft | 11 kts | 195° |
| 2026-04-27 05:58 | 36.70799 | 28.78864 | 22 ft | 10 kts | 196° |
| 2026-04-27 05:58 | 36.70730 | 28.78839 | 21 ft | 10 kts | 196° |
| 2026-04-27 05:58 | 36.70663 | 28.78815 | 21 ft | 10 kts | 196° |
| 2026-04-27 05:59 | 36.70607 | 28.78795 | 21 ft | 7 kts | 196° |
| 2026-04-27 05:59 | 36.70562 | 28.78779 | 21 ft | 7 kts | 196° |
| 2026-04-27 05:59 | 36.70518 | 28.78763 | 21 ft | 7 kts | 196° |
| 2026-04-27 05:59 | 36.70475 | 28.78748 | 21 ft | 6 kts | 195° |
| 2026-04-27 06:00 | 36.70390 | 28.78722 | 20 ft | 6 kts | 193° |
| 2026-04-27 06:00 | 36.70349 | 28.78709 | 20 ft | 6 kts | 194° |
| 2026-04-27 06:00 | 36.70309 | 28.78696 | 20 ft | 6 kts | 195° |
| 2026-04-27 06:01 | 36.70270 | 28.78681 | 20 ft | 6 kts | 196° |
| 2026-04-27 06:01 | 36.70230 | 28.78667 | 19 ft | 6 kts | 196° |
| 2026-04-27 06:01 | 36.70192 | 28.78653 | 19 ft | 6 kts | 196° |
| 2026-04-27 06:01 | 36.70154 | 28.78640 | 19 ft | 6 kts | 195° |
| 2026-04-27 06:02 | 36.70115 | 28.78632 | 19 ft | 6 kts | 181° |
| 2026-04-27 06:02 | 36.70078 | 28.78644 | 19 ft | 6 kts | 150° |
| 2026-04-27 06:02 | 36.70056 | 28.78682 | 19 ft | 6 kts | 106° |
| 2026-04-27 06:02 | 36.70058 | 28.78729 | 18 ft | 5 kts | 79° |
| 2026-04-27 06:03 | 36.70065 | 28.78776 | 17 ft | 6 kts | 79° |
| 2026-04-27 06:03 | 36.70077 | 28.78821 | 17 ft | 5 kts | 56° |
| 2026-04-27 06:03 | 36.70101 | 28.78837 | 17 ft | 0 kts | 17° |
| 2026-04-27 06:05 | 36.70200 | 28.78873 | 19 ft | 42 kts | 15° |
| 2026-04-27 06:05 | 36.70744 | 28.79055 | 22 ft | 118 kts | 15° |
| 2026-04-27 06:05 | 36.71756 | 28.79381 | 42 ft | 179 kts | 13° |
| 2026-04-27 06:05 | 36.73031 | 28.79793 | 596 ft | 201 kts | 14° |
| 2026-04-27 06:06 | 36.74481 | 28.80108 | 1107 ft | 223 kts | 358° |
| 2026-04-27 06:06 | 36.76055 | 28.79947 | 1617 ft | 227 kts | 356° |
| 2026-04-27 06:06 | 36.77623 | 28.79848 | 2076 ft | 224 kts | 359° |
| 2026-04-27 06:06 | 36.79181 | 28.79794 | 2569 ft | 226 kts | 355° |
| 2026-04-27 06:07 | 36.80684 | 28.79163 | 3052 ft | 231 kts | 330° |
| 2026-04-27 06:07 | 36.82063 | 28.78085 | 3554 ft | 236 kts | 330° |
| 2026-04-27 06:07 | 36.83456 | 28.77007 | 4059 ft | 236 kts | 330° |
| 2026-04-27 06:07 | 36.84866 | 28.75921 | 4555 ft | 240 kts | 330° |
| 2026-04-27 06:08 | 36.86294 | 28.74824 | 5056 ft | 242 kts | 330° |
| 2026-04-27 06:08 | 36.87734 | 28.73721 | 5544 ft | 243 kts | 330° |
| 2026-04-27 06:08 | 36.89175 | 28.72618 | 6032 ft | 243 kts | 329° |
| 2026-04-27 06:08 | 36.90392 | 28.71165 | 6522 ft | 245 kts | 304° |
| 2026-04-27 06:09 | 36.91305 | 28.69367 | 7021 ft | 245 kts | 303° |
| 2026-04-27 06:09 | 36.92205 | 28.67582 | 7487 ft | 246 kts | 303° |
| 2026-04-27 06:09 | 36.93117 | 28.65775 | 7986 ft | 246 kts | 303° |
| 2026-04-27 06:09 | 36.94040 | 28.63964 | 8499 ft | 247 kts | 304° |
| 2026-04-27 06:10 | 36.94973 | 28.62140 | 9024 ft | 250 kts | 303° |
| 2026-04-27 06:10 | 36.95914 | 28.60298 | 9550 ft | 253 kts | 303° |
| 2026-04-27 06:10 | 36.96864 | 28.58441 | 10057 ft | 254 kts | 303° |
| 2026-04-27 06:10 | 36.97822 | 28.56569 | 10537 ft | 256 kts | 304° |
| 2026-04-27 06:11 | 36.98784 | 28.54687 | 11035 ft | 257 kts | 304° |
| 2026-04-27 06:11 | 36.99746 | 28.52805 | 11531 ft | 257 kts | 304° |
| 2026-04-27 06:11 | 37.00711 | 28.50914 | 12013 ft | 259 kts | 304° |
| 2026-04-27 06:11 | 37.01724 | 28.48933 | 12176 ft | 281 kts | 304° |
| 2026-04-27 06:12 | 37.02814 | 28.46799 | 12357 ft | 301 kts | 304° |
| 2026-04-27 06:12 | 37.03979 | 28.44513 | 12525 ft | 322 kts | 304° |
| 2026-04-27 06:12 | 37.05218 | 28.42081 | 12678 ft | 341 kts | 304° |
| 2026-04-27 06:12 | 37.06528 | 28.39508 | 12835 ft | 360 kts | 304° |
| 2026-04-27 06:13 | 37.07878 | 28.36795 | 13158 ft | 373 kts | 300° |
| 2026-04-27 06:13 | 37.08859 | 28.33797 | 13710 ft | 379 kts | 290° |
| 2026-04-27 06:13 | 37.09671 | 28.30653 | 14320 ft | 381 kts | 289° |
| 2026-04-27 06:13 | 37.10460 | 28.27472 | 14914 ft | 383 kts | 289° |
| 2026-04-27 06:14 | 37.11255 | 28.24273 | 15487 ft | 385 kts | 289° |
| 2026-04-27 06:14 | 37.12064 | 28.21064 | 16058 ft | 387 kts | 289° |
| 2026-04-27 06:14 | 37.12608 | 28.18928 | 16442 ft | 389 kts | 289° |
| 2026-04-27 06:14 | 37.13441 | 28.15692 | 17005 ft | 391 kts | 289° |
| 2026-04-27 06:15 | 37.14283 | 28.12443 | 17572 ft | 393 kts | 290° |
| 2026-04-27 06:15 | 37.15132 | 28.09178 | 18143 ft | 395 kts | 290° |
| 2026-04-27 06:15 | 37.15985 | 28.05895 | 18651 ft | 397 kts | 290° |
| 2026-04-27 06:15 | 37.16843 | 28.02597 | 19116 ft | 399 kts | 290° |
| 2026-04-27 06:16 | 37.17704 | 27.99280 | 19581 ft | 401 kts | 290° |
| 2026-04-27 06:16 | 37.18570 | 27.95941 | 20037 ft | 404 kts | 290° |
| 2026-04-27 06:16 | 37.19438 | 27.92589 | 20504 ft | 406 kts | 290° |
| 2026-04-27 06:16 | 37.20310 | 27.89212 | 20968 ft | 408 kts | 290° |
| 2026-04-27 06:17 | 37.21187 | 27.85817 | 21442 ft | 409 kts | 290° |
| 2026-04-27 06:17 | 37.22065 | 27.82409 | 21880 ft | 411 kts | 290° |
| 2026-04-27 06:17 | 37.22937 | 27.79023 | 22287 ft | 414 kts | 290° |
| 2026-04-27 06:17 | 37.23824 | 27.75572 | 22706 ft | 416 kts | 290° |
| 2026-04-27 06:18 | 37.24712 | 27.72111 | 23120 ft | 418 kts | 290° |
| 2026-04-27 06:18 | 37.25604 | 27.68634 | 23511 ft | 420 kts | 290° |
| 2026-04-27 06:18 | 37.26499 | 27.65139 | 23846 ft | 422 kts | 290° |
| 2026-04-27 06:18 | 37.27447 | 27.61647 | 24158 ft | 422 kts | 296° |
| 2026-04-27 06:19 | 37.29009 | 27.58549 | 24454 ft | 420 kts | 312° |
| 2026-04-27 06:19 | 37.31162 | 27.56072 | 24793 ft | 420 kts | 325° |
| 2026-04-27 06:19 | 37.33747 | 27.54359 | 25077 ft | 423 kts | 337° |
| 2026-04-27 06:19 | 37.36482 | 27.52984 | 25364 ft | 425 kts | 338° |
| 2026-04-27 06:20 | 37.39250 | 27.51626 | 25610 ft | 428 kts | 338° |
| 2026-04-27 06:20 | 37.41987 | 27.50261 | 25879 ft | 430 kts | 337° |
| 2026-04-27 06:20 | 37.44766 | 27.48838 | 26181 ft | 431 kts | 337° |
| 2026-04-27 06:20 | 37.47540 | 27.47393 | 26456 ft | 432 kts | 336° |
| 2026-04-27 06:21 | 37.50322 | 27.45936 | 26716 ft | 434 kts | 336° |
| 2026-04-27 06:21 | 37.53091 | 27.44383 | 26968 ft | 436 kts | 334° |
| 2026-04-27 06:21 | 37.55847 | 27.42752 | 27225 ft | 438 kts | 334° |
| 2026-04-27 06:21 | 37.58606 | 27.41112 | 27492 ft | 439 kts | 334° |
| 2026-04-27 06:22 | 37.61380 | 27.39483 | 27743 ft | 441 kts | 334° |
| 2026-04-27 06:22 | 37.64184 | 27.37861 | 27975 ft | 443 kts | 335° |
| 2026-04-27 06:22 | 37.67009 | 27.36294 | 28254 ft | 444 kts | 335° |
| 2026-04-27 06:22 | 37.69843 | 27.34757 | 28614 ft | 443 kts | 336° |
| 2026-04-27 06:23 | 37.72668 | 27.33233 | 29008 ft | 441 kts | 335° |
| 2026-04-27 06:23 | 37.75483 | 27.31711 | 29349 ft | 440 kts | 335° |
| 2026-04-27 06:23 | 37.78263 | 27.30201 | 29652 ft | 440 kts | 335° |
| 2026-04-27 06:23 | 37.81083 | 27.28662 | 29996 ft | 440 kts | 335° |
| 2026-04-27 06:24 | 37.83892 | 27.27124 | 30307 ft | 439 kts | 335° |
| 2026-04-27 06:24 | 37.86695 | 27.25586 | 30587 ft | 439 kts | 335° |
| 2026-04-27 06:24 | 37.89494 | 27.24048 | 30841 ft | 438 kts | 335° |
| 2026-04-27 06:24 | 37.92296 | 27.22507 | 31085 ft | 438 kts | 335° |
| 2026-04-27 06:25 | 37.95059 | 27.20986 | 31339 ft | 438 kts | 335° |
| 2026-04-27 06:25 | 37.97852 | 27.19447 | 31592 ft | 437 kts | 335° |
| 2026-04-27 06:25 | 38.00679 | 27.17889 | 31835 ft | 437 kts | 335° |
| 2026-04-27 06:25 | 38.03429 | 27.16372 | 32068 ft | 437 kts | 335° |
| 2026-04-27 06:26 | 38.06216 | 27.14833 | 32308 ft | 437 kts | 335° |
| 2026-04-27 06:26 | 38.09005 | 27.13292 | 32538 ft | 437 kts | 335° |
| 2026-04-27 06:26 | 38.11784 | 27.11754 | 32780 ft | 436 kts | 335° |
| 2026-04-27 06:26 | 38.14568 | 27.10214 | 33044 ft | 435 kts | 335° |